Observation data for Tulia on 06/26/2019      Previous  Date  Next       Current Mesonet Observations  Soil Data  Daily Summary Page  Observations in Plain Language
KTIS 260500Z 12010KT 20/13 A3012 RMK A01 T02000130  RH  067%=      5-min Rain = 0
KTIS 260505Z 12010KT 20/13 A3013 RMK A01 T01990129  RH  066%=      5-min Rain = 0
KTIS 260510Z 12010KT 20/13 A3013 RMK A01 T01980126  RH  065%=      5-min Rain = 0
KTIS 260515Z 13010KT 20/12 A3013 RMK A01 T01980124  RH  065%=      5-min Rain = 0
KTIS 260520Z 13009KT 20/13 A3013 RMK A01 T01950126  RH  067%=      5-min Rain = 0
KTIS 260525Z 13009KT 19/13 A3013 RMK A01 T01930128  RH  068%=      5-min Rain = 0
KTIS 260530Z 13010KT 19/13 A3013 RMK A01 T01930128  RH  069%=      5-min Rain = 0
KTIS 260535Z 13010KT 20/13 A3013 RMK A01 T01950127  RH  068%=      5-min Rain = 0
KTIS 260540Z 13011KT 20/13 A3012 RMK A01 T01960127  RH  067%=      5-min Rain = 0
KTIS 260545Z 13011KT 20/13 A3012 RMK A01 T01960125  RH  066%=      5-min Rain = 0
KTIS 260550Z 14011KT 20/12 A3012 RMK A01 T02000122  RH  063%=      5-min Rain = 0
KTIS 260555Z 14011KT 20/12 A3012 RMK A01 T02020120  RH  061%=      5-min Rain = 0
KTIS 260600Z 15011KT 20/12 A3012 RMK A01 T02030120  RH  061%=      5-min Rain = 0
KTIS 260605Z 15012G17KT 20/12 A3011 RMK A01 T02040120  RH  061%=      5-min Rain = 0
KTIS 260610Z 15013G18KT 21/12 A3011 RMK A01 T02060121  RH  060%=      5-min Rain = 0
KTIS 260615Z 15015KT 21/12 A301 RMK A01 T02090123  RH  060%=      5-min Rain = 0
KTIS 260620Z 15016G21KT 21/13 A3009 RMK A01 T02100125  RH  060%=      5-min Rain = 0
KTIS 260625Z 15017KT 21/13 A3008 RMK A01 T02100127  RH  061%=      5-min Rain = 0
KTIS 260630Z 15019G24KT 21/13 A3008 RMK A01 T02140129  RH  061%=      5-min Rain = 0
KTIS 260635Z 16018G24KT 22/13 A3008 RMK A01 T02170130  RH  060%=      5-min Rain = 0
KTIS 260640Z 16017G22KT 22/13 A3008 RMK A01 T02170131  RH  060%=      5-min Rain = 0
KTIS 260645Z 15017G22KT 22/13 A3008 RMK A01 T02190133  RH  060%=      5-min Rain = 0
KTIS 260650Z 15016G21KT 22/13 A3008 RMK A01 T02170134  RH  062%=      5-min Rain = 0
KTIS 260655Z 15016G21KT 22/14 A3008 RMK A01 T02170135  RH  062%=      5-min Rain = 0
KTIS 260700Z 15015G20KT 22/14 A3008 RMK A01 T02170136  RH  062%=      5-min Rain = 0
KTIS 260705Z 16014KT 22/14 A3008 RMK A01 T02160136  RH  063%=      5-min Rain = 0
KTIS 260710Z 17015G20KT 22/14 A3007 RMK A01 T02150136  RH  063%=      5-min Rain = 0
KTIS 260715Z 17016G21KT 22/14 A3006 RMK A01 T02150136  RH  063%=      5-min Rain = 0
KTIS 260720Z 17017KT 21/14 A3006 RMK A01 T02140138  RH  064%=      5-min Rain = 0
KTIS 260725Z 17015G20KT 21/14 A3006 RMK A01 T02140137  RH  064%=      5-min Rain = 0
KTIS 260730Z 18015G20KT 21/14 A3006 RMK A01 T02130138  RH  065%=      5-min Rain = 0
KTIS 260735Z 17015KT 21/14 A3006 RMK A01 T02130139  RH  065%=      5-min Rain = 0
KTIS 260740Z 17014KT 21/14 A3006 RMK A01 T02120141  RH  066%=      5-min Rain = 0
KTIS 260745Z 16013KT 21/14 A3006 RMK A01 T02100142  RH  068%=      5-min Rain = 0
KTIS 260750Z 17014KT 21/14 A3006 RMK A01 T02110143  RH  068%=      5-min Rain = 0
KTIS 260755Z 18014G20KT 21/14 A3006 RMK A01 T02130143  RH  067%=      5-min Rain = 0
KTIS 260800Z 17013KT 21/14 A3006 RMK A01 T02120144  RH  068%=      5-min Rain = 0
KTIS 260805Z 16012KT 21/15 A3006 RMK A01 T02110145  RH  069%=      5-min Rain = 0
KTIS 260810Z 16012KT 21/15 A3006 RMK A01 T02090145  RH  070%=      5-min Rain = 0
KTIS 260815Z 17012G17KT 21/15 A3006 RMK A01 T02080145  RH  070%=      5-min Rain = 0
KTIS 260820Z 18012G17KT 21/14 A3007 RMK A01 T02090144  RH  069%=      5-min Rain = 0
KTIS 260825Z 19013KT 21/14 A3007 RMK A01 T02090144  RH  069%=      5-min Rain = 0
KTIS 260830Z 19011G17KT 21/14 A3007 RMK A01 T02080144  RH  070%=      5-min Rain = 0
KTIS 260835Z 18010KT 21/15 A3007 RMK A01 T02060145  RH  071%=      5-min Rain = 0
KTIS 260840Z 18009KT 20/15 A3007 RMK A01 T02040145  RH  072%=      5-min Rain = 0
KTIS 260845Z 19009KT 20/15 A3007 RMK A01 T02020145  RH  073%=      5-min Rain = 0
KTIS 260850Z 19009KT 20/15 A3007 RMK A01 T02020145  RH  073%=      5-min Rain = 0
KTIS 260855Z 19009KT 20/15 A3007 RMK A01 T02020146  RH  073%=      5-min Rain = 0
KTIS 260900Z 20009KT 20/15 A3007 RMK A01 T02020147  RH  074%=      5-min Rain = 0
KTIS 260905Z 20010KT 20/15 A3006 RMK A01 T02030147  RH  074%=      5-min Rain = 0
KTIS 260910Z 20011KT 20/15 A3006 RMK A01 T02040148  RH  074%=      5-min Rain = 0
KTIS 260915Z 19012KT 21/15 A3006 RMK A01 T02050149  RH  073%=      5-min Rain = 0
KTIS 260920Z 19013G18KT 21/15 A3006 RMK A01 T02080150  RH  073%=      5-min Rain = 0
KTIS 260925Z 19013KT 21/15 A3006 RMK A01 T02090151  RH  072%=      5-min Rain = 0
KTIS 260930Z 19013G18KT 21/15 A3006 RMK A01 T02100152  RH  072%=      5-min Rain = 0
KTIS 260935Z 19013KT 21/15 A3007 RMK A01 T02110152  RH  072%=      5-min Rain = 0
KTIS 260940Z 19013KT 21/15 A3007 RMK A01 T02110152  RH  072%=      5-min Rain = 0
KTIS 260945Z 19011KT 21/15 A3007 RMK A01 T02090152  RH  073%=      5-min Rain = 0
KTIS 260950Z 20011KT 21/15 A3007 RMK A01 T02080153  RH  074%=      5-min Rain = 0
KTIS 260955Z 20011KT 21/15 A3007 RMK A01 T02080153  RH  074%=      5-min Rain = 0
KTIS 261000Z 19011KT 21/15 A3007 RMK A01 T02060153  RH  075%=      5-min Rain = 0
KTIS 261005Z 19010KT 21/15 A3007 RMK A01 T02060154  RH  075%=      5-min Rain = 0
KTIS 261010Z 19009KT 21/15 A3007 RMK A01 T02050154  RH  076%=      5-min Rain = 0
KTIS 261015Z 19009KT 20/15 A3008 RMK A01 T02040154  RH  076%=      5-min Rain = 0
KTIS 261020Z 19009KT 20/15 A3008 RMK A01 T02020154  RH  077%=      5-min Rain = 0
KTIS 261025Z 20009KT 20/15 A3007 RMK A01 T02010154  RH  077%=      5-min Rain = 0
KTIS 261030Z 20009KT 20/15 A3008 RMK A01 T02010153  RH  078%=      5-min Rain = 0
KTIS 261035Z 20009KT 20/15 A3008 RMK A01 T02000154  RH  078%=      5-min Rain = 0
KTIS 261040Z 20009KT 20/15 A3008 RMK A01 T01990154  RH  078%=      5-min Rain = 0
KTIS 261045Z 20009KT 20/15 A3008 RMK A01 T01990154  RH  079%=      5-min Rain = 0
KTIS 261050Z 20008KT 20/15 A3008 RMK A01 T01980153  RH  079%=      5-min Rain = 0
KTIS 261055Z 19008KT 20/15 A3008 RMK A01 T01960153  RH  080%=      5-min Rain = 0
KTIS 261100Z 19008KT 20/15 A3008 RMK A01 T01950154  RH  081%=      5-min Rain = 0
KTIS 261105Z 20009KT 19/15 A3008 RMK A01 T01940153  RH  081%=      5-min Rain = 0
KTIS 261110Z 19009KT 19/15 A3008 RMK A01 T01920153  RH  082%=      5-min Rain = 0
KTIS 261115Z 19009KT 19/15 A3008 RMK A01 T01910153  RH  082%=      5-min Rain = 0
KTIS 261120Z 19009KT 19/15 A3009 RMK A01 T01920154  RH  082%=      5-min Rain = 0
KTIS 261125Z 20009KT 19/15 A3009 RMK A01 T01910153  RH  082%=      5-min Rain = 0
KTIS 261130Z 21009KT 19/15 A3009 RMK A01 T01900153  RH  083%=      5-min Rain = 0
KTIS 261135Z 21009KT 19/15 A3009 RMK A01 T01910153  RH  082%=      5-min Rain = 0
KTIS 261140Z 21010KT 19/15 A3009 RMK A01 T01920153  RH  082%=      5-min Rain = 0
KTIS 261145Z 21011G16KT 19/15 A3009 RMK A01 T01940154  RH  082%=      5-min Rain = 0
KTIS 261150Z 22011KT 20/16 A3009 RMK A01 T01950155  RH  081%=      5-min Rain = 0
KTIS 261155Z 21011KT 20/16 A301 RMK A01 T01960155  RH  081%=      5-min Rain = 0
KTIS 261200Z 21012KT 20/16 A301 RMK A01 T01970155  RH  080%=      5-min Rain = 0
KTIS 261205Z 21012KT 20/16 A301 RMK A01 T01980155  RH  080%=      5-min Rain = 0
KTIS 261210Z 21013KT 20/16 A301 RMK A01 T01990155  RH  079%=      5-min Rain = 0
KTIS 261215Z 21011KT 20/16 A301 RMK A01 T02000155  RH  079%=      5-min Rain = 0
KTIS 261220Z 21011G16KT 20/16 A301 RMK A01 T02000155  RH  079%=      5-min Rain = 0
KTIS 261225Z 21012KT 20/16 A301 RMK A01 T02010156  RH  079%=      5-min Rain = 0
KTIS 261230Z 20010KT 20/16 A3011 RMK A01 T02010156  RH  079%=      5-min Rain = 0
KTIS 261235Z 20010KT 20/16 A3011 RMK A01 T02020156  RH  078%=      5-min Rain = 0
KTIS 261240Z 20011KT 20/16 A3011 RMK A01 T02040157  RH  078%=      5-min Rain = 0
KTIS 261245Z 20013KT 21/16 A3011 RMK A01 T02060157  RH  077%=      5-min Rain = 0
KTIS 261250Z 20011KT 21/16 A3011 RMK A01 T02080158  RH  076%=      5-min Rain = 0
KTIS 261255Z 21012G17KT 21/16 A3011 RMK A01 T02100158  RH  076%=      5-min Rain = 0
KTIS 261300Z 21013G19KT 21/16 A3011 RMK A01 T02120158  RH  075%=      5-min Rain = 0
KTIS 261305Z 21014KT 21/16 A3011 RMK A01 T02140159  RH  074%=      5-min Rain = 0
KTIS 261310Z 21013KT 22/16 A3012 RMK A01 T02160159  RH  074%=      5-min Rain = 0
KTIS 261315Z 21013KT 22/16 A3011 RMK A01 T02170160  RH  073%=      5-min Rain = 0
KTIS 261320Z 21013G18KT 22/16 A3012 RMK A01 T02190161  RH  073%=      5-min Rain = 0
KTIS 261325Z 21012G17KT 22/16 A3012 RMK A01 T02220161  RH  072%=      5-min Rain = 0
KTIS 261330Z 21013G18KT 22/16 A3012 RMK A01 T02240161  RH  071%=      5-min Rain = 0
KTIS 261335Z 21014KT 23/16 A3012 RMK A01 T02260162  RH  070%=      5-min Rain = 0
KTIS 261340Z 21013KT 23/16 A3012 RMK A01 T02290163  RH  069%=      5-min Rain = 0
KTIS 261345Z 21013KT 23/16 A3012 RMK A01 T02330163  RH  068%=      5-min Rain = 0
KTIS 261350Z 21012G17KT 24/16 A3012 RMK A01 T02380163  RH  066%=      5-min Rain = 0
KTIS 261355Z 21013G18KT 24/16 A3013 RMK A01 T02390162  RH  065%=      5-min Rain = 0
KTIS 261400Z 20013KT 24/16 A3013 RMK A01 T02420160  RH  063%=      5-min Rain = 0
KTIS 261405Z 20014KT 24/16 A3013 RMK A01 T02430158  RH  062%=      5-min Rain = 0
KTIS 261410Z 21015KT 24/16 A3013 RMK A01 T02360155  RH  063%=      5-min Rain = 0
KTIS 261415Z 21014KT 24/16 A3013 RMK A01 T02360155  RH  063%=      5-min Rain = 0
KTIS 261420Z 21012KT 24/16 A3014 RMK A01 T02420156  RH  061%=      5-min Rain = 0
KTIS 261425Z 21014G19KT 25/15 A3014 RMK A01 T02500154  RH  058%=      5-min Rain = 0
KTIS 261430Z 21016KT 26/15 A3014 RMK A01 T02550153  RH  056%=      5-min Rain = 0
KTIS 261435Z 22016KT 26/15 A3014 RMK A01 T02560150  RH  054%=      5-min Rain = 0
KTIS 261440Z 22013KT 26/15 A3015 RMK A01 T02600152  RH  054%=      5-min Rain = 0
KTIS 261445Z 22015G21KT 26/15 A3014 RMK A01 T02610149  RH  052%=      5-min Rain = 0
KTIS 261450Z 21015KT 26/15 A3014 RMK A01 T02600149  RH  052%=      5-min Rain = 0
KTIS 261455Z 21015KT 26/15 A3014 RMK A01 T02600151  RH  053%=      5-min Rain = 0
KTIS 261500Z 22014G19KT 26/15 A3014 RMK A01 T02610152  RH  053%=      5-min Rain = 0
KTIS 261505Z 22014G20KT 26/15 A3014 RMK A01 T02640152  RH  052%=      5-min Rain = 0
KTIS 261510Z 21016G21KT 27/15 A3014 RMK A01 T02670149  RH  050%=      5-min Rain = 0
KTIS 261515Z 22016G21KT 27/15 A3014 RMK A01 T02680148  RH  050%=      5-min Rain = 0
KTIS 261520Z 21016G21KT 27/15 A3014 RMK A01 T02690150  RH  050%=      5-min Rain = 0
KTIS 261525Z 22015KT 27/15 A3014 RMK A01 T02710150  RH  050%=      5-min Rain = 0
KTIS 261530Z 21016G22KT 27/15 A3014 RMK A01 T02740149  RH  048%=      5-min Rain = 0
KTIS 261535Z 21016G22KT 28/15 A3014 RMK A01 T02760146  RH  047%=      5-min Rain = 0
KTIS 261540Z 21016G21KT 28/15 A3014 RMK A01 T02780145  RH  046%=      5-min Rain = 0
KTIS 261545Z 21018KT 28/14 A3014 RMK A01 T02780141  RH  045%=      5-min Rain = 0
KTIS 261550Z 21016G22KT 28/14 A3014 RMK A01 T02810143  RH  045%=      5-min Rain = 0
KTIS 261555Z 21015KT 28/15 A3014 RMK A01 T02800145  RH  046%=      5-min Rain = 0
KTIS 261600Z 21014KT 28/15 A3014 RMK A01 T02840147  RH  045%=      5-min Rain = 0
KTIS 261605Z 20016G22KT 29/14 A3014 RMK A01 T02860143  RH  044%=      5-min Rain = 0
KTIS 261610Z 20015G22KT 29/14 A3015 RMK A01 T02850144  RH  044%=      5-min Rain = 0
KTIS 261615Z 20015KT 29/15 A3015 RMK A01 T02860145  RH  044%=      5-min Rain = 0
KTIS 261620Z 21015G20KT 29/14 A3015 RMK A01 T02860144  RH  044%=      5-min Rain = 0
KTIS 261625Z 21014KT 29/15 A3015 RMK A01 T02900146  RH  043%=      5-min Rain = 0
KTIS 261630Z 19013G20KT 29/15 A3015 RMK A01 T02910146  RH  043%=      5-min Rain = 0
KTIS 261635Z 18015G20KT 29/14 A3015 RMK A01 T02940141  RH  041%=      5-min Rain = 0
KTIS 261640Z 18016G21KT 29/14 A3015 RMK A01 T02930138  RH  040%=      5-min Rain = 0
KTIS 261645Z 18014KT 30/14 A3015 RMK A01 T02950139  RH  040%=      5-min Rain = 0
KTIS 261650Z 19014KT 30/14 A3015 RMK A01 T02970139  RH  040%=      5-min Rain = 0
KTIS 261655Z 19014G20KT 30/14 A3015 RMK A01 T03000139  RH  039%=      5-min Rain = 0
KTIS 261700Z 19014G19KT 30/14 A3015 RMK A01 T03010136  RH  038%=      5-min Rain = 0
KTIS 261705Z 18013KT 30/14 A3015 RMK A01 T03020140  RH  039%=      5-min Rain = 0
KTIS 261710Z 19013KT 31/14 A3015 RMK A01 T03050137  RH  037%=      5-min Rain = 0
KTIS 261715Z 18014G21KT 31/14 A3015 RMK A01 T03050137  RH  037%=      5-min Rain = 0
KTIS 261720Z 18014G20KT 31/14 A3015 RMK A01 T03070138  RH  037%=      5-min Rain = 0
KTIS 261725Z 17013KT 31/14 A3016 RMK A01 T03080140  RH  038%=      5-min Rain = 0
KTIS 261730Z 17013G19KT 31/14 A3016 RMK A01 T03060136  RH  037%=      5-min Rain = 0
KTIS 261735Z 17014G20KT 31/14 A3016 RMK A01 T03090135  RH  036%=      5-min Rain = 0
KTIS 261740Z 18016KT 31/14 A3015 RMK A01 T03100136  RH  036%=      5-min Rain = 0
KTIS 261745Z 18013KT 31/14 A3015 RMK A01 T03090140  RH  037%=      5-min Rain = 0
KTIS 261750Z 18015G22KT 32/13 A3015 RMK A01 T03160130  RH  033%=      5-min Rain = 0
KTIS 261755Z 17014G19KT 32/13 A3015 RMK A01 T03150134  RH  035%=      5-min Rain = 0
KTIS 261800Z 18015G21KT 31/13 A3015 RMK A01 T03130132  RH  035%=      5-min Rain = 0
KTIS 261805Z 18013G19KT 32/13 A3015 RMK A01 T03150131  RH  034%=      5-min Rain = 0
KTIS 261810Z 17015G22KT 32/12 A3015 RMK A01 T03190123  RH  031%=      5-min Rain = 0
KTIS 261815Z 17016G21KT 32/12 A3015 RMK A01 T03170123  RH  032%=      5-min Rain = 0
KTIS 261820Z 18016G23KT 32/13 A3015 RMK A01 T03160125  RH  033%=      5-min Rain = 0
KTIS 261825Z 18015G21KT 32/12 A3014 RMK A01 T03200120  RH  031%=      5-min Rain = 0
KTIS 261830Z 17014G20KT 32/13 A3014 RMK A01 T03190128  RH  033%=      5-min Rain = 0
KTIS 261835Z 17015G20KT 32/13 A3014 RMK A01 T03190129  RH  033%=      5-min Rain = 0
KTIS 261840Z 19016KT 32/12 A3014 RMK A01 T03220120  RH  030%=      5-min Rain = 0
KTIS 261845Z 18014G22KT 33/13 A3014 RMK A01 T03290127  RH  031%=      5-min Rain = 0
KTIS 261850Z 16017G24KT 32/13 A3014 RMK A01 T03230129  RH  032%=      5-min Rain = 0
KTIS 261855Z 18016G22KT 32/12 A3014 RMK A01 T03240118  RH  029%=      5-min Rain = 0
KTIS 261900Z 17015G21KT 32/12 A3013 RMK A01 T03240122  RH  030%=      5-min Rain = 0
KTIS 261905Z 17015G20KT 32/12 A3013 RMK A01 T03230120  RH  030%=      5-min Rain = 0
KTIS 261910Z 17015G22KT 33/13 A3013 RMK A01 T03250125  RH  031%=      5-min Rain = 0
KTIS 261915Z 18016G21KT 33/12 A3013 RMK A01 T03320121  RH  029%=      5-min Rain = 0
KTIS 261920Z 17014G22KT 33/13 A3013 RMK A01 T03250129  RH  031%=      5-min Rain = 0
KTIS 261925Z 16018G24KT 32/13 A3013 RMK A01 T03220126  RH  032%=      5-min Rain = 0
KTIS 261930Z 17015G21KT 32/12 A3013 RMK A01 T03210124  RH  032%=      5-min Rain = 0
KTIS 261935Z 17014G21KT 33/13 A3012 RMK A01 T03300128  RH  031%=      5-min Rain = 0
KTIS 261940Z 15015G21KT 32/14 A3012 RMK A01 T03230137  RH  034%=      5-min Rain = 0
KTIS 261945Z 16015KT 33/12 A3012 RMK A01 T03250124  RH  030%=      5-min Rain = 0
KTIS 261950Z 16016G24KT 32/13 A3012 RMK A01 T03240125  RH  031%=      5-min Rain = 0
KTIS 261955Z 15016G23KT 32/13 A3012 RMK A01 T03240125  RH  031%=      5-min Rain = 0
KTIS 262000Z 15015G21KT 32/13 A3012 RMK A01 T03240131  RH  032%=      5-min Rain = 0
KTIS 262005Z 15015G23KT 33/13 A3012 RMK A01 T03260134  RH  033%=      5-min Rain = 0
KTIS 262010Z 15017G23KT 33/13 A3012 RMK A01 T03250133  RH  032%=      5-min Rain = 0
KTIS 262015Z 15014G21KT 33/14 A3011 RMK A01 T03260144  RH  035%=      5-min Rain = 0
KTIS 262020Z 16016G23KT 33/13 A3011 RMK A01 T03330126  RH  030%=      5-min Rain = 0
KTIS 262025Z 15015G21KT 33/13 A3011 RMK A01 T03270129  RH  031%=      5-min Rain = 0
KTIS 262030Z 15013G18KT 33/13 A3011 RMK A01 T03270134  RH  032%=      5-min Rain = 0
KTIS 262035Z 16018G26KT 33/13 A3011 RMK A01 T03290127  RH  031%=      5-min Rain = 0
KTIS 262040Z 15017G23KT 33/12 A3011 RMK A01 T03270121  RH  030%=      5-min Rain = 0
KTIS 262045Z 16016G22KT 33/13 A3011 RMK A01 T03270127  RH  031%=      5-min Rain = 0
KTIS 262050Z 18015G23KT 34/12 A3011 RMK A01 T03350115  RH  027%=      5-min Rain = 0
KTIS 262055Z 15018G25KT 33/12 A3011 RMK A01 T03310119  RH  029%=      5-min Rain = 0
KTIS 262100Z 16015G21KT 33/13 A301 RMK A01 T03300131  RH  031%=      5-min Rain = 0
KTIS 262105Z 15016G23KT 33/14 A301 RMK A01 T03310135  RH  032%=      5-min Rain = 0
KTIS 262110Z 16017KT 33/13 A301 RMK A01 T03290129  RH  031%=      5-min Rain = 0
KTIS 262115Z 16018KT 33/12 A301 RMK A01 T03290124  RH  030%=      5-min Rain = 0
KTIS 262120Z 15015G20KT 33/13 A3009 RMK A01 T03300134  RH  032%=      5-min Rain = 0
KTIS 262125Z 17019G27KT 33/14 A3009 RMK A01 T03300141  RH  033%=      5-min Rain = 0
KTIS 262130Z 15017G25KT 33/15 A3009 RMK A01 T03310145  RH  034%=      5-min Rain = 0
KTIS 262135Z 16018G27KT 33/14 A3009 RMK A01 T03280139  RH  033%=      5-min Rain = 0
KTIS 262140Z 16018G24KT 33/14 A3008 RMK A01 T03290141  RH  034%=      5-min Rain = 0
KTIS 262145Z 15020G26KT 33/14 A3008 RMK A01 T03260141  RH  034%=      5-min Rain = 0
KTIS 262150Z 15016G24KT 33/14 A3008 RMK A01 T03280142  RH  034%=      5-min Rain = 0
KTIS 262155Z 15018G26KT 33/14 A3008 RMK A01 T03250136  RH  033%=      5-min Rain = 0
KTIS 262200Z 16017G23KT 32/13 A3008 RMK A01 T03210129  RH  032%=      5-min Rain = 0
KTIS 262205Z 17016G23KT 33/13 A3007 RMK A01 T03280126  RH  031%=      5-min Rain = 0
KTIS 262210Z 17017G22KT 33/12 A3007 RMK A01 T03290123  RH  030%=      5-min Rain = 0
KTIS 262215Z 17018G23KT 33/12 A3007 RMK A01 T03250118  RH  029%=      5-min Rain = 0
KTIS 262220Z 17015G20KT 33/12 A3007 RMK A01 T03310116  RH  028%=      5-min Rain = 0
KTIS 262225Z 17019G26KT 33/11 A3007 RMK A01 T03310112  RH  027%=      5-min Rain = 0
KTIS 262230Z 18017KT 34/11 A3007 RMK A01 T03370112  RH  026%=      5-min Rain = 0
KTIS 262235Z 17017G22KT 34/11 A3007 RMK A01 T03350114  RH  027%=      5-min Rain = 0
KTIS 262240Z 17017G24KT 33/12 A3007 RMK A01 T03300124  RH  030%=      5-min Rain = 0
KTIS 262245Z 17018G23KT 33/12 A3007 RMK A01 T03290119  RH  029%=      5-min Rain = 0
KTIS 262250Z 16016KT 33/12 A3007 RMK A01 T03250121  RH  030%=      5-min Rain = 0
KTIS 262255Z 17016G22KT 33/13 A3008 RMK A01 T03280125  RH  030%=      5-min Rain = 0
KTIS 262300Z 17015G21KT 33/14 A3007 RMK A01 T03310135  RH  032%=      5-min Rain = 0
KTIS 262305Z 17017G22KT 33/13 A3008 RMK A01 T03280128  RH  031%=      5-min Rain = 0
KTIS 262310Z 16017G22KT 33/13 A3008 RMK A01 T03250131  RH  032%=      5-min Rain = 0
KTIS 262315Z 16017G22KT 32/13 A3008 RMK A01 T03220128  RH  032%=      5-min Rain = 0
KTIS 262320Z 17015G22KT 33/13 A3008 RMK A01 T03250132  RH  032%=      5-min Rain = 0
KTIS 262325Z 17018G26KT 33/13 A3007 RMK A01 T03260126  RH  031%=      5-min Rain = 0
KTIS 262330Z 16018G26KT 32/14 A3007 RMK A01 T03220138  RH  034%=      5-min Rain = 0
KTIS 262335Z 16017G23KT 32/14 A3007 RMK A01 T03200138  RH  035%=      5-min Rain = 0
KTIS 262340Z 16017G22KT 32/14 A3007 RMK A01 T03210140  RH  035%=      5-min Rain = 0
KTIS 262345Z 16016G21KT 32/14 A3008 RMK A01 T03190140  RH  035%=      5-min Rain = 0
KTIS 262350Z 17016G21KT 32/14 A3008 RMK A01 T03180137  RH  035%=      5-min Rain = 0
KTIS 262355Z 17018KT 32/14 A3008 RMK A01 T03170135  RH  035%=      5-min Rain = 0
KTIS 270000Z 17018G23KT 31/13 A3008 RMK A01 T03100134  RH  036%=      5-min Rain = 0
KTIS 270005Z 16016G21KT 31/14 A3009 RMK A01 T03060139  RH  038%=      5-min Rain = 0
KTIS 270010Z 17018KT 30/14 A3009 RMK A01 T03040139  RH  038%=      5-min Rain = 0
KTIS 270015Z 17016G21KT 30/14 A3009 RMK A01 T03040137  RH  038%=      5-min Rain = 0
KTIS 270020Z 17018G23KT 30/14 A3009 RMK A01 T03020138  RH  038%=      5-min Rain = 0
KTIS 270025Z 17018KT 30/14 A3009 RMK A01 T02990138  RH  039%=      5-min Rain = 0
KTIS 270030Z 17016KT 30/14 A3009 RMK A01 T02980139  RH  039%=      5-min Rain = 0
KTIS 270035Z 16016G21KT 30/14 A3009 RMK A01 T02970144  RH  041%=      5-min Rain = 0
KTIS 270040Z 16016G24KT 29/14 A3009 RMK A01 T02940144  RH  042%=      5-min Rain = 0
KTIS 270045Z 16015G21KT 29/15 A301 RMK A01 T02940146  RH  042%=      5-min Rain = 0
KTIS 270050Z 17018KT 29/15 A301 RMK A01 T02930145  RH  042%=      5-min Rain = 0
KTIS 270055Z 16015G21KT 29/15 A3011 RMK A01 T02910149  RH  044%=      5-min Rain = 0
KTIS 270100Z 17014G19KT 29/15 A3011 RMK A01 T02890149  RH  044%=      5-min Rain = 0
KTIS 270105Z 16014KT 29/15 A3011 RMK A01 T02880149  RH  045%=      5-min Rain = 0
KTIS 270110Z 16014KT 29/15 A3011 RMK A01 T02870147  RH  044%=      5-min Rain = 0
KTIS 270115Z 16014KT 29/15 A3011 RMK A01 T02860146  RH  044%=      5-min Rain = 0
KTIS 270120Z 16014G19KT 28/15 A3011 RMK A01 T02840145  RH  044%=      5-min Rain = 0
KTIS 270125Z 16014KT 28/14 A3011 RMK A01 T02830144  RH  045%=      5-min Rain = 0
KTIS 270130Z 15013KT 28/15 A3011 RMK A01 T02810145  RH  045%=      5-min Rain = 0
KTIS 270135Z 16013KT 28/14 A3011 RMK A01 T02790144  RH  045%=      5-min Rain = 0
KTIS 270140Z 16013KT 28/14 A3012 RMK A01 T02780142  RH  045%=      5-min Rain = 0
KTIS 270145Z 16012KT 28/14 A3012 RMK A01 T02780140  RH  045%=      5-min Rain = 0
KTIS 270150Z 17011KT 28/14 A3013 RMK A01 T02760140  RH  045%=      5-min Rain = 0
KTIS 270155Z 17011KT 28/14 A3013 RMK A01 T02750140  RH  045%=      5-min Rain = 0
KTIS 270200Z 17010KT 27/14 A3013 RMK A01 T02730141  RH  046%=      5-min Rain = 0
KTIS 270205Z 17009KT 27/14 A3013 RMK A01 T02710142  RH  047%=      5-min Rain = 0
KTIS 270210Z 17009KT 27/14 A3013 RMK A01 T02690142  RH  048%=      5-min Rain = 0
KTIS 270215Z 17009KT 27/14 A3014 RMK A01 T02690142  RH  048%=      5-min Rain = 0
KTIS 270220Z 16010KT 27/14 A3014 RMK A01 T02660143  RH  049%=      5-min Rain = 0
KTIS 270225Z 16010KT 26/14 A3014 RMK A01 T02630143  RH  050%=      5-min Rain = 0
KTIS 270230Z 16010KT 26/14 A3013 RMK A01 T02630142  RH  049%=      5-min Rain = 0
KTIS 270235Z 16009KT 26/14 A3014 RMK A01 T02620141  RH  049%=      5-min Rain = 0
KTIS 270240Z 16009KT 26/14 A3014 RMK A01 T02600141  RH  050%=      5-min Rain = 0
KTIS 270245Z 16009KT 26/14 A3014 RMK A01 T02590140  RH  050%=      5-min Rain = 0
KTIS 270250Z 17010KT 26/14 A3015 RMK A01 T02580140  RH  050%=      5-min Rain = 0
KTIS 270255Z 17009KT 26/14 A3015 RMK A01 T02580140  RH  050%=      5-min Rain = 0
KTIS 270300Z 16010KT 26/14 A3016 RMK A01 T02560139  RH  050%=      5-min Rain = 0
KTIS 270305Z 16011KT 26/14 A3016 RMK A01 T02560139  RH  050%=      5-min Rain = 0
KTIS 270310Z 16011KT 26/14 A3016 RMK A01 T02550139  RH  051%=      5-min Rain = 0
KTIS 270315Z 16011KT 26/14 A3015 RMK A01 T02550139  RH  051%=      5-min Rain = 0
KTIS 270320Z 16010KT 25/14 A3016 RMK A01 T02540139  RH  051%=      5-min Rain = 0
KTIS 270325Z 16010KT 25/14 A3016 RMK A01 T02540140  RH  051%=      5-min Rain = 0
KTIS 270330Z 16010KT 25/14 A3016 RMK A01 T02520141  RH  052%=      5-min Rain = 0
KTIS 270335Z 15010KT 25/14 A3017 RMK A01 T02500141  RH  053%=      5-min Rain = 0
KTIS 270340Z 14011KT 25/14 A3017 RMK A01 T02490140  RH  053%=      5-min Rain = 0
KTIS 270345Z 14010KT 25/14 A3017 RMK A01 T02480141  RH  054%=      5-min Rain = 0
KTIS 270350Z 15008KT 25/14 A3017 RMK A01 T02460141  RH  054%=      5-min Rain = 0
KTIS 270355Z 14009KT 24/14 A3018 RMK A01 T02440142  RH  055%=      5-min Rain = 0
KTIS 270400Z 15010KT 24/14 A3017 RMK A01 T02440143  RH  056%=      5-min Rain = 0
KTIS 270405Z 15009KT 24/15 A3017 RMK A01 T02420145  RH  057%=      5-min Rain = 0
KTIS 270410Z 15010KT 24/15 A3017 RMK A01 T02420146  RH  057%=      5-min Rain = 0
KTIS 270415Z 15010KT 24/15 A3017 RMK A01 T02410147  RH  058%=      5-min Rain = 0
KTIS 270420Z 15010KT 24/15 A3017 RMK A01 T02410148  RH  058%=      5-min Rain = 0
KTIS 270425Z 15010KT 24/15 A3017 RMK A01 T02410148  RH  059%=      5-min Rain = 0
KTIS 270430Z 15011KT 24/15 A3017 RMK A01 T02410149  RH  059%=      5-min Rain = 0
KTIS 270435Z 15010KT 24/15 A3018 RMK A01 T02390149  RH  059%=      5-min Rain = 0
KTIS 270440Z 15010KT 24/15 A3018 RMK A01 T02380148  RH  060%=      5-min Rain = 0
KTIS 270445Z 15011KT 24/15 A3017 RMK A01 T02380149  RH  060%=      5-min Rain = 0
KTIS 270450Z 15011KT 24/15 A3017 RMK A01 T02390150  RH  060%=      5-min Rain = 0
KTIS 270455Z 15012KT 24/15 A3017 RMK A01 T02400151  RH  060%=      5-min Rain = 0

Page generated in 0.0247 seconds.